Current Conditions
Mostly Cloudy
Conditions




Pressure
30.38 (inHG) - 1028.82 (mb)
Visibility

9.9 (mimiles) - 16.0 (km)
   Temperature
59  °F
15°C
39  °F
Dewpoint
48  %
 Humidity
   Wind Speed
6  mph
5  kts
10  km/h
2.7  m/s
   Wind Direction
 80°
Due East
   Airport Data
KBUU
Location Burlington Municipal Airport 6 mi (9.65 km)
Metar :KBUU 181915Z AUTO 08005KT 10SM BKN047 BKN055 15/04 A3038 RMK AO2 T01460041 PWINO
Fri 18th September 13:15 pm
   Raw Metar Info
Raw METAR is the most common format in the world for the transmission of observational weather data. It is highly standardized through the International Civil Aviation Organization (ICAO), which allows it to be understood throughout most of the world.
   API Info
Data Provided by
https://www.checkwx.com/weather/KBUU
   © Info
CSS/SVG/PHP scripts were developed by weather34.com for use in the weather34 template © 2015-2020

Guide Info provided by Metar-Wikipedia